createdAt,value
2023-01-23T00:01:06.853Z,54.53
2023-01-23T00:03:38.191Z,55.48
2023-01-23T00:06:12.083Z,58.95
2023-01-23T00:08:44.205Z,55.67
2023-01-23T00:11:18.731Z,61.28
2023-01-23T00:13:49.537Z,69.35
2023-01-23T00:16:24.781Z,59.50
2023-01-23T00:18:57.160Z,61.10
2023-01-23T00:21:30.273Z,62.33
2023-01-23T00:24:02.864Z,71.45
2023-01-23T00:26:34.756Z,71.37
2023-01-23T00:29:06.557Z,76.77
2023-01-23T00:31:39.025Z,77.03
2023-01-23T00:34:12.380Z,79.60
2023-01-23T00:36:45.191Z,79.15
2023-01-23T00:39:19.151Z,77.65
2023-01-23T00:41:51.701Z,78.57
2023-01-23T00:44:22.518Z,74.65
2023-01-23T00:46:53.437Z,70.75
2023-01-23T00:49:24.767Z,64.32
2023-01-23T00:51:57.785Z,61.13
2023-01-23T00:54:28.757Z,56.60
2023-01-23T00:56:59.757Z,49.70
2023-01-23T00:59:30.586Z,45.78
2023-01-23T01:02:01.341Z,42.48
2023-01-23T01:04:32.202Z,44.83
2023-01-23T01:07:06.535Z,44.13
2023-01-23T01:09:38.095Z,39.98
2023-01-23T01:12:11.095Z,39.60
2023-01-23T01:14:41.921Z,38.80
2023-01-23T01:17:12.782Z,37.80
2023-01-23T01:19:44.041Z,36.38
2023-01-23T01:22:14.837Z,37.78
2023-01-23T01:24:45.738Z,38.28
2023-01-23T01:27:16.607Z,37.63
2023-01-23T01:29:47.529Z,36.50
2023-01-23T01:32:18.300Z,38.83
2023-01-23T01:34:50.737Z,37.75
2023-01-23T01:37:22.907Z,36.63
2023-01-23T01:39:54.914Z,39.18
2023-01-23T01:42:27.553Z,39.85
2023-01-23T01:45:01.383Z,37.75
2023-01-23T01:47:34.147Z,37.75
2023-01-23T01:50:07.084Z,37.93
2023-01-23T01:52:38.014Z,37.93
2023-01-23T01:55:18.697Z,38.33
2023-01-23T01:57:54.579Z,37.85
2023-01-23T02:00:29.172Z,38.67
2023-01-23T02:03:02.449Z,38.10
2023-01-23T02:05:35.679Z,40.30
2023-01-23T02:08:36.094Z,43.08
2023-01-23T02:11:07.400Z,44.05
2023-01-23T02:13:40.958Z,45.58
2023-01-23T02:16:14.280Z,49.67
2023-01-23T02:18:49.891Z,50.23
2023-01-23T02:21:25.992Z,50.28
2023-01-23T02:24:09.284Z,50.70
2023-01-23T02:26:45.538Z,50.60
2023-01-23T02:29:19.087Z,49.58
2023-01-23T02:31:51.680Z,54.45
2023-01-23T02:34:23.974Z,54.35
2023-01-23T02:36:54.894Z,55.40
2023-01-23T02:39:26.084Z,53.75
2023-01-23T02:41:58.063Z,55.35
2023-01-23T02:44:35.184Z,57.67
2023-01-23T02:47:09.983Z,60.10
2023-01-23T02:49:41.606Z,59.55
2023-01-23T02:52:12.523Z,60.88
2023-01-23T02:54:43.280Z,61.20
2023-01-23T02:57:14.148Z,61.05
2023-01-23T03:00:02.060Z,63.60
2023-01-23T03:02:33.051Z,64.95
2023-01-23T03:05:03.798Z,61.10
2023-01-23T03:07:34.506Z,64.12
2023-01-23T03:10:06.648Z,64.15
2023-01-23T03:12:38.920Z,64.87
2023-01-23T03:15:10.885Z,64.62
2023-01-23T03:17:41.552Z,65.32
2023-01-23T03:20:13.154Z,68.40
2023-01-23T03:22:44.357Z,65.92
2023-01-23T03:25:15.085Z,68.60
2023-01-23T03:27:45.966Z,66.77
2023-01-23T03:30:22.137Z,66.62
2023-01-23T03:32:53.583Z,69.40
2023-01-23T03:35:28.043Z,66.40
2023-01-23T03:37:58.929Z,62.58
2023-01-23T03:40:49.005Z,63.08
2023-01-23T03:43:19.745Z,60.50
2023-01-23T03:45:50.858Z,60.40
2023-01-23T03:48:21.620Z,57.98
2023-01-23T03:50:52.590Z,56.85
2023-01-23T03:53:24.486Z,56.75
2023-01-23T03:55:56.073Z,53.63
2023-01-23T03:58:27.537Z,50.20
2023-01-23T04:00:59.072Z,47.75
2023-01-23T04:03:29.844Z,50.25
2023-01-23T04:06:02.365Z,49.40
2023-01-23T04:08:33.079Z,48.28
2023-01-23T04:11:12.047Z,49.33
2023-01-23T04:13:43.040Z,46.95
2023-01-23T04:16:13.943Z,44.95
2023-01-23T04:18:45.191Z,43.33
2023-01-23T04:21:16.042Z,39.08
2023-01-23T04:23:46.825Z,37.78
2023-01-23T04:26:17.734Z,35.48
2023-01-23T04:28:48.414Z,34.75
2023-01-23T04:31:19.204Z,35.05
2023-01-23T04:33:51.141Z,34.03
2023-01-23T04:36:21.985Z,30.48
2023-01-23T04:38:52.974Z,28.35
2023-01-23T04:41:29.364Z,27.95
2023-01-23T04:44:01.919Z,26.68
2023-01-23T04:49:24.790Z,29.87
2023-01-23T04:51:56.411Z,24.87
2023-01-23T04:54:27.771Z,26.33
2023-01-23T04:56:58.832Z,32.10
2023-01-23T04:59:29.650Z,32.65
2023-01-23T05:02:00.317Z,34.45
2023-01-23T05:04:31.620Z,35.03
2023-01-23T05:07:04.005Z,35.05
2023-01-23T05:09:34.618Z,31.90
2023-01-23T05:12:05.690Z,28.67
2023-01-23T05:14:36.737Z,27.55
2023-01-23T05:17:10.625Z,28.87
2023-01-23T05:19:41.539Z,28.25
2023-01-23T05:22:14.119Z,27.55
2023-01-23T05:24:44.927Z,28.52
2023-01-23T05:27:16.134Z,25.65
2023-01-23T05:29:48.052Z,24.50
2023-01-23T05:32:18.879Z,22.80
2023-01-23T05:34:52.738Z,21.02
2023-01-23T05:37:24.808Z,23.32
2023-01-23T05:40:02.723Z,22.35
2023-01-23T05:42:38.073Z,22.17
2023-01-23T05:45:09.795Z,18.35
2023-01-23T05:47:46.176Z,16.40
2023-01-23T05:50:36.764Z,15.63
2023-01-23T05:53:08.464Z,17.42
2023-01-23T05:55:46.542Z,19.95
2023-01-23T05:58:18.831Z,19.40
2023-01-23T06:00:49.647Z,19.30
2023-01-23T06:03:26.589Z,19.23
2023-01-23T06:06:00.565Z,18.20
2023-01-23T06:08:34.742Z,18.23
2023-01-23T06:11:07.586Z,20.95
2023-01-23T06:13:47.571Z,19.57
2023-01-23T06:19:18.325Z,16.67
2023-01-23T06:21:52.589Z,16.20
2023-01-23T06:24:25.654Z,17.05
2023-01-23T06:27:01.469Z,17.07
2023-01-23T06:29:37.833Z,16.10
2023-01-23T06:32:09.730Z,12.25
2023-01-23T06:34:40.844Z,14.15
2023-01-23T06:37:13.341Z,13.20
2023-01-23T06:39:47.177Z,12.50
2023-01-23T06:42:17.857Z,13.22
2023-01-23T06:44:49.229Z,13.43
2023-01-23T06:47:22.505Z,13.93
2023-01-23T06:55:27.277Z,16.07
2023-01-23T06:57:59.521Z,16.83
2023-01-23T07:00:31.758Z,16.70
2023-01-23T07:03:04.173Z,16.60
2023-01-23T07:05:45.717Z,16.95
2023-01-23T07:08:18.069Z,17.85
2023-01-23T07:11:00.505Z,17.60
2023-01-23T07:13:36.967Z,17.90
2023-01-23T07:16:14.317Z,19.60
2023-01-23T07:18:51.217Z,17.43
2023-01-23T07:21:22.110Z,18.00
2023-01-23T07:23:57.978Z,18.57
2023-01-23T07:26:29.127Z,18.07
2023-01-23T07:29:07.174Z,18.37
2023-01-23T07:31:44.977Z,16.65
2023-01-23T07:34:16.951Z,17.48
2023-01-23T07:36:50.752Z,17.27
2023-01-23T07:39:27.471Z,16.67
2023-01-23T07:42:06.489Z,17.20
2023-01-23T07:44:39.003Z,16.67
2023-01-23T07:47:10.244Z,18.07
2023-01-23T07:49:42.617Z,19.00
2023-01-23T07:52:15.293Z,17.95
2023-01-23T07:54:48.796Z,17.67
2023-01-23T07:57:19.632Z,17.55
2023-01-23T07:59:54.776Z,16.85
2023-01-23T08:02:40.775Z,17.55
2023-01-23T08:05:13.062Z,17.83
2023-01-23T08:07:46.235Z,18.42
2023-01-23T08:13:13.729Z,17.07
2023-01-23T08:15:53.973Z,18.57
2023-01-23T08:18:27.299Z,17.80
2023-01-23T08:21:01.147Z,18.17
2023-01-23T08:23:46.569Z,17.17
2023-01-23T08:29:15.935Z,17.62
2023-01-23T08:31:46.745Z,18.55
2023-01-23T08:34:17.629Z,21.57
2023-01-23T08:36:48.355Z,19.87
2023-01-23T08:39:21.263Z,19.27
2023-01-23T08:41:52.060Z,17.75
2023-01-23T08:44:22.854Z,18.30
2023-01-23T08:46:53.680Z,18.48
2023-01-23T08:49:24.495Z,16.75
2023-01-23T08:51:55.599Z,18.80
2023-01-23T08:54:26.398Z,19.27
2023-01-23T08:56:57.119Z,17.42
2023-01-23T08:59:28.254Z,17.77
2023-01-23T09:02:02.046Z,17.90
2023-01-23T09:04:35.970Z,17.40
2023-01-23T09:07:06.761Z,16.30
2023-01-23T09:09:37.710Z,17.23
2023-01-23T09:12:12.142Z,16.75
2023-01-23T09:14:43.282Z,17.92
2023-01-23T09:17:15.085Z,16.90
2023-01-23T09:19:47.643Z,19.60
2023-01-23T09:25:18.249Z,15.68
2023-01-23T09:27:49.039Z,16.10
2023-01-23T09:30:22.137Z,15.18
2023-01-23T09:32:53.067Z,15.95
2023-01-23T09:35:24.586Z,15.83
2023-01-23T09:40:56.363Z,15.05
2023-01-23T09:43:29.738Z,16.45
2023-01-23T09:46:13.430Z,17.25
2023-01-23T09:48:53.479Z,15.85
2023-01-23T09:51:43.603Z,16.17
2023-01-23T09:54:35.147Z,16.95
2023-01-23T09:57:08.464Z,16.93
2023-01-23T09:59:58.348Z,16.23
2023-01-23T10:02:26.758Z,14.68
2023-01-23T10:04:58.303Z,15.88
2023-01-23T10:07:49.682Z,17.55
2023-01-23T10:10:40.657Z,16.32
2023-01-23T10:13:19.701Z,16.05
2023-01-23T10:16:21.532Z,16.70
2023-01-23T10:19:12.836Z,16.00
2023-01-23T10:22:19.714Z,16.90
2023-01-23T10:24:55.268Z,17.87
2023-01-23T10:27:32.347Z,15.75
2023-01-23T10:30:22.091Z,15.05
2023-01-23T10:32:55.467Z,16.07
2023-01-23T10:35:31.784Z,16.17
2023-01-23T10:38:10.344Z,16.10
2023-01-23T10:40:58.784Z,16.42
2023-01-23T10:43:29.901Z,15.85
2023-01-23T10:46:00.649Z,15.08
2023-01-23T10:48:40.539Z,16.97
2023-01-23T10:51:41.746Z,15.88
2023-01-23T10:54:36.608Z,16.45
2023-01-23T10:57:05.893Z,14.58
2023-01-23T10:59:45.154Z,16.23
2023-01-23T11:02:21.840Z,15.30
2023-01-23T11:07:29.711Z,16.50
2023-01-23T11:10:03.195Z,15.93
2023-01-23T11:12:39.411Z,16.37
2023-01-23T11:15:32.502Z,16.37
2023-01-23T11:18:04.280Z,17.05
2023-01-23T11:20:40.112Z,15.98
2023-01-23T11:23:19.003Z,17.73
2023-01-23T11:25:54.348Z,18.23
2023-01-23T11:28:29.227Z,20.82
2023-01-23T11:31:20.945Z,21.25
2023-01-23T11:34:04.285Z,22.13
2023-01-23T11:36:52.680Z,20.88
2023-01-23T11:39:54.970Z,19.50
2023-01-23T11:42:28.690Z,18.90
2023-01-23T11:45:03.508Z,18.67
2023-01-23T11:47:45.759Z,17.25
2023-01-23T11:50:54.124Z,17.45
2023-01-23T11:53:14.030Z,17.45
2023-01-23T11:56:07.206Z,19.02
2023-01-23T11:58:52.654Z,17.23
2023-01-23T12:01:31.975Z,17.85
2023-01-23T12:04:11.029Z,17.02
2023-01-23T12:06:57.658Z,16.93
2023-01-23T12:09:31.110Z,17.60
2023-01-23T12:12:19.556Z,17.07
2023-01-23T12:14:55.608Z,16.30
2023-01-23T12:17:41.821Z,18.63
2023-01-23T12:20:36.204Z,19.15
2023-01-23T12:23:31.931Z,20.32
2023-01-23T12:26:17.751Z,19.45
2023-01-23T12:29:14.695Z,22.42
2023-01-23T12:32:21.356Z,20.72
2023-01-23T12:35:20.446Z,18.95
2023-01-23T12:37:59.576Z,18.90
2023-01-23T12:40:32.929Z,18.48
2023-01-23T12:43:06.462Z,18.00
2023-01-23T12:45:38.481Z,17.42
2023-01-23T12:48:17.576Z,17.02
2023-01-23T12:50:50.966Z,17.45
2023-01-23T12:53:27.449Z,16.85
2023-01-23T12:56:03.834Z,18.32
2023-01-23T12:58:37.291Z,17.42
2023-01-23T13:01:25.809Z,19.40
2023-01-23T13:04:11.194Z,18.67
2023-01-23T13:06:50.316Z,19.12
2023-01-23T13:09:30.135Z,18.62
2023-01-23T13:12:27.412Z,17.98
2023-01-23T13:15:18.966Z,18.12
2023-01-23T13:17:54.433Z,19.12
2023-01-23T13:20:48.319Z,19.73
2023-01-23T13:23:36.586Z,20.15
2023-01-23T13:26:21.225Z,19.90
2023-01-23T13:28:56.852Z,20.00
2023-01-23T13:31:48.418Z,19.60
2023-01-23T13:34:22.196Z,19.60
2023-01-23T13:36:54.374Z,19.65
2023-01-23T13:39:27.486Z,18.25
2023-01-23T13:42:19.730Z,18.52
2023-01-23T13:45:29.679Z,20.57
2023-01-23T13:48:35.624Z,20.62
2023-01-23T13:51:14.809Z,19.05
2023-01-23T13:54:10.355Z,19.07
2023-01-23T13:56:43.398Z,20.27
2023-01-23T13:59:24.094Z,18.85
2023-01-23T14:02:20.628Z,19.10
2023-01-23T14:05:14.619Z,17.92
2023-01-23T14:07:54.873Z,18.40
2023-01-23T14:10:36.677Z,19.37
2023-01-23T14:13:15.881Z,19.32
2023-01-23T14:16:09.883Z,19.87
2023-01-23T14:18:49.218Z,19.82
2023-01-23T14:21:41.450Z,19.23
2023-01-23T14:24:14.641Z,19.98
2023-01-23T14:26:47.608Z,23.77
2023-01-23T14:29:27.111Z,19.80
2023-01-23T14:32:00.200Z,22.25
2023-01-23T14:34:30.743Z,20.00
2023-01-23T14:37:09.912Z,19.52
2023-01-23T14:39:48.102Z,19.77
2023-01-23T14:42:27.489Z,20.37
2023-01-23T14:44:59.919Z,20.85
2023-01-23T14:47:37.797Z,20.60
2023-01-23T14:50:13.570Z,19.17
2023-01-23T14:52:44.637Z,20.00
2023-01-23T14:55:29.803Z,18.37
2023-01-23T14:58:01.433Z,21.40
2023-01-23T15:00:33.773Z,20.48
2023-01-23T15:03:06.291Z,20.88
2023-01-23T15:05:38.532Z,20.68
2023-01-23T15:08:22.459Z,22.07
2023-01-23T15:10:54.932Z,23.45
2023-01-23T15:13:33.979Z,23.02
2023-01-23T15:16:06.916Z,21.65
2023-01-23T15:18:38.879Z,23.20
2023-01-23T15:21:10.945Z,24.57
2023-01-23T15:23:44.178Z,25.60
2023-01-23T15:26:24.827Z,26.05
2023-01-23T15:29:02.208Z,27.50
2023-01-23T15:31:35.862Z,27.27
2023-01-23T15:34:18.568Z,30.55
2023-01-23T15:37:00.678Z,28.62
2023-01-23T15:39:34.366Z,29.92
2023-01-23T15:42:11.201Z,30.10
2023-01-23T15:47:12.483Z,29.63
2023-01-23T15:49:44.357Z,31.00
2023-01-23T15:52:26.566Z,30.27
2023-01-23T15:54:59.761Z,30.12
2023-01-23T15:57:30.756Z,28.25
2023-01-23T16:00:02.571Z,29.50
2023-01-23T16:02:37.443Z,29.02
2023-01-23T16:05:08.957Z,30.45
2023-01-23T16:07:48.353Z,29.52
2023-01-23T16:10:29.098Z,29.90
2023-01-23T16:13:00.948Z,28.40
2023-01-23T16:15:39.496Z,27.90
2023-01-23T16:18:10.136Z,28.75
2023-01-23T16:20:46.462Z,29.65
2023-01-23T16:23:24.785Z,30.12
2023-01-23T16:25:56.294Z,31.27
2023-01-23T16:28:27.949Z,28.57
2023-01-23T16:30:58.828Z,29.90
2023-01-23T16:33:29.736Z,29.27
2023-01-23T16:36:00.686Z,30.90
2023-01-23T16:38:32.469Z,30.32
2023-01-23T16:41:04.397Z,30.75
2023-01-23T16:43:36.594Z,31.48
2023-01-23T16:46:07.577Z,30.10
2023-01-23T16:48:38.453Z,31.50
2023-01-23T16:51:25.971Z,31.65
2023-01-23T16:54:02.262Z,32.80
2023-01-23T16:56:42.873Z,30.27
2023-01-23T16:59:16.475Z,31.20
2023-01-23T17:01:49.798Z,29.52
2023-01-23T17:04:22.914Z,29.48
2023-01-23T17:06:53.946Z,30.25
2023-01-23T17:09:24.645Z,28.98
2023-01-23T17:11:57.883Z,29.67
2023-01-23T17:14:36.410Z,28.87
2023-01-23T17:17:09.741Z,27.70
2023-01-23T17:19:42.660Z,28.90
2023-01-23T17:22:19.172Z,28.60
2023-01-23T17:24:50.033Z,27.15
2023-01-23T17:27:20.846Z,27.00
2023-01-23T17:29:51.711Z,27.22
2023-01-23T17:32:31.030Z,26.10
2023-01-23T17:35:03.786Z,27.58
2023-01-23T17:37:36.123Z,26.87
2023-01-23T17:40:08.083Z,26.50
2023-01-23T17:42:38.864Z,25.88
2023-01-23T17:45:12.093Z,26.48
2023-01-23T17:47:45.340Z,25.80
2023-01-23T17:50:24.992Z,25.50
2023-01-23T17:52:57.150Z,26.02
2023-01-23T17:55:33.921Z,25.20
2023-01-23T17:58:04.905Z,25.20
2023-01-23T18:00:35.980Z,26.48
2023-01-23T18:03:07.473Z,24.65
2023-01-23T18:05:38.216Z,25.37
2023-01-23T18:08:09.969Z,24.82
2023-01-23T18:10:41.297Z,25.88
2023-01-23T18:13:23.908Z,25.82
2023-01-23T18:16:15.322Z,25.97
2023-01-23T18:18:47.712Z,25.88
2023-01-23T18:21:19.161Z,27.22
2023-01-23T18:23:51.051Z,26.70
2023-01-23T18:26:33.126Z,27.60
2023-01-23T18:29:23.000Z,27.62
2023-01-23T18:32:15.525Z,27.30
2023-01-23T18:35:08.114Z,26.02
2023-01-23T18:37:53.197Z,26.82
2023-01-23T18:40:38.217Z,27.65
2023-01-23T18:43:14.128Z,26.48
2023-01-23T18:45:45.592Z,27.52
2023-01-23T18:48:25.542Z,25.90
2023-01-23T18:51:14.507Z,27.62
2023-01-23T18:53:53.565Z,27.15
2023-01-23T18:56:54.285Z,28.02
2023-01-23T18:59:36.345Z,27.02
2023-01-23T19:02:19.175Z,27.62
2023-01-23T19:05:07.704Z,29.15
2023-01-23T19:07:39.435Z,30.32
2023-01-23T19:10:18.773Z,32.60
2023-01-23T19:13:18.996Z,34.45
2023-01-23T19:16:04.123Z,34.50
2023-01-23T19:18:54.378Z,36.10
2023-01-23T19:21:31.001Z,36.58
2023-01-23T19:24:07.837Z,39.00
2023-01-23T19:29:21.446Z,38.02
2023-01-23T19:31:49.746Z,39.45
2023-01-23T19:34:16.689Z,39.23
2023-01-23T19:36:47.529Z,37.93
2023-01-23T19:39:18.547Z,38.53
2023-01-23T19:41:51.048Z,35.73
2023-01-23T19:44:24.980Z,36.48
2023-01-23T19:46:55.850Z,36.33
2023-01-23T19:49:26.876Z,34.20
2023-01-23T19:51:57.734Z,33.30
2023-01-23T19:54:28.439Z,31.37
2023-01-23T19:56:59.242Z,28.60
2023-01-23T19:59:30.597Z,27.73
2023-01-23T20:02:01.586Z,25.15
2023-01-23T20:04:32.497Z,24.27
2023-01-23T20:07:03.346Z,23.47
2023-01-23T20:09:34.244Z,23.12
2023-01-23T20:12:05.024Z,21.05
2023-01-23T20:14:35.925Z,20.17
2023-01-23T20:17:06.726Z,19.23
2023-01-23T20:19:37.692Z,18.98
2023-01-23T20:22:08.736Z,19.62
2023-01-23T20:24:39.440Z,18.82
2023-01-23T20:27:10.440Z,16.82
2023-01-23T20:29:41.356Z,16.57
2023-01-23T20:32:12.179Z,17.42
2023-01-23T20:34:42.999Z,16.40
2023-01-23T20:37:13.798Z,16.15
2023-01-23T20:39:44.602Z,16.15
2023-01-23T20:42:15.538Z,15.20
2023-01-23T20:44:46.429Z,15.70
2023-01-23T20:47:26.243Z,14.18
2023-01-23T20:49:57.014Z,14.75
2023-01-23T20:52:45.767Z,16.37
2023-01-23T20:55:16.827Z,15.03
2023-01-23T20:58:05.407Z,15.50
2023-01-23T21:00:36.265Z,14.38
2023-01-23T21:03:07.272Z,15.10
2023-01-23T21:05:38.824Z,14.80
2023-01-23T21:08:10.179Z,14.80
2023-01-23T21:10:40.923Z,15.00
2023-01-23T21:13:13.984Z,14.40
2023-01-23T21:15:45.269Z,15.13
2023-01-23T21:18:16.186Z,14.93
2023-01-23T21:20:47.038Z,15.25
2023-01-23T21:23:17.712Z,15.03
2023-01-23T21:25:48.509Z,15.28
2023-01-23T21:28:19.324Z,14.93
2023-01-23T21:30:50.342Z,15.45
2023-01-23T21:33:21.512Z,15.28
2023-01-23T21:35:56.910Z,16.20
2023-01-23T21:38:27.905Z,16.32
2023-01-23T21:40:58.664Z,15.58
2023-01-23T21:43:29.544Z,16.05
2023-01-23T21:45:59.782Z,15.55
2023-01-23T21:48:34.632Z,14.75
2023-01-23T21:51:13.879Z,16.37
2023-01-23T21:53:46.482Z,15.32
2023-01-23T21:56:18.771Z,14.73
2023-01-23T21:58:50.306Z,15.68
2023-01-23T22:01:41.872Z,15.50
2023-01-23T22:04:15.112Z,17.00
2023-01-23T22:06:46.827Z,16.50
2023-01-23T22:09:20.209Z,15.48
2023-01-23T22:11:51.713Z,17.20
2023-01-23T22:14:22.824Z,17.60
2023-01-23T22:16:53.671Z,18.12
2023-01-23T22:19:25.955Z,16.30
2023-01-23T22:21:58.301Z,20.72
2023-01-23T22:24:29.204Z,31.05
2023-01-23T22:27:00.727Z,20.62
2023-01-23T22:29:31.639Z,17.98
2023-01-23T22:32:02.712Z,17.42
2023-01-23T22:34:33.867Z,16.93
2023-01-23T22:37:04.777Z,16.93
2023-01-23T22:39:35.687Z,16.67
2023-01-23T22:42:06.838Z,17.52
2023-01-23T22:44:37.705Z,18.60
2023-01-23T22:47:10.114Z,18.55
2023-01-23T22:49:41.099Z,17.90
2023-01-23T22:52:12.030Z,19.48
2023-01-23T22:54:43.271Z,19.48
2023-01-23T22:57:14.116Z,21.80
2023-01-23T22:59:44.793Z,23.73
2023-01-23T23:02:16.699Z,28.25
2023-01-23T23:04:48.812Z,29.12
2023-01-23T23:07:20.119Z,24.27
2023-01-23T23:09:50.768Z,23.38
2023-01-23T23:12:21.710Z,22.30
2023-01-23T23:14:52.668Z,23.57
2023-01-23T23:17:23.730Z,23.73
2023-01-23T23:19:54.603Z,24.37
2023-01-23T23:22:25.502Z,23.32
2023-01-23T23:24:56.304Z,23.07
2023-01-23T23:27:27.364Z,22.98
2023-01-23T23:29:58.152Z,25.88
2023-01-23T23:32:28.970Z,29.02
2023-01-23T23:35:00.420Z,23.02
2023-01-23T23:37:31.424Z,23.42
2023-01-23T23:40:02.275Z,22.52
2023-01-23T23:42:32.967Z,22.82
2023-01-23T23:45:03.715Z,23.70
2023-01-23T23:47:34.633Z,24.15
2023-01-23T23:50:06.009Z,24.43
2023-01-23T23:52:36.924Z,26.45
2023-01-23T23:55:08.582Z,28.27
2023-01-23T23:57:39.505Z,29.60
